San Francisco del Monte de Oro, Argentina
Current Conditions -  °F | °C
As of 1:00 AM on Friday 19 Dec 2014 (Local Time) from SAOC Reporting Station
Clear Clear  
Wind Chill: 75°   Ceiling: Unl
Heat Index: 75°   Visibility: 6mi
Dew Point: 57°   Wind: 14mph
Humidity: 53%   Direction: 360°N
Pressure: 29.77"   Gusts: NA
Location:  32.6°S, 66.13°W
Report Text: SAOC 190400Z 36012KT CAVOK 24/14 Q1008
Loading
Personal Weather Stations






























Interactive Weather Map New forecast layout! Learn more

10-Day Weather Forecast

Advertisements
Track Severe Weather on mobile